Time;durP1;ratioP1;P1;durP2;ratioP2;P2;SDS_P1;SDS_P2;PMS_P1;PMS_P2;Temp;Humidity;BMP_temperature;BMP_pressure;BME280_temperature;BME280_humidity;BME280_pressure;Samples;Min_cycle;Max_cycle;Signal;HPM_P1;HPM_P2
2023/01/27 00:00:18;;;;;;;5.57;2.63;;;;;;;;;;5040696;28;20295;-73
2023/01/27 00:02:45;;;;;;;5.43;2.20;;;;;;;;;;5026945;28;20179;-74
2023/01/27 00:05:10;;;;;;;3.07;2.30;;;;;;;;;;5033275;28;20683;-73
2023/01/27 00:07:36;;;;;;;2.97;2.20;;;;;;;;;;5043307;28;20554;-73
2023/01/27 00:10:02;;;;;;;3.60;1.90;;;;;;;;;;5044902;28;20912;-73
2023/01/27 00:15:13;;;;;;;2.70;2.30;;;;;;;;;;5044849;28;20187;-74
2023/01/27 00:17:38;;;;;;;2.70;2.30;;;;;;;;;;5040611;28;20580;-73
2023/01/27 00:20:04;;;;;;;3.60;2.30;;;;;;;;;;5045099;28;20992;-74
2023/01/27 00:25:27;;;;;;;3.50;2.00;;;;;;;;;;5012283;28;21037;-73
2023/01/27 00:27:53;;;;;;;4.77;1.97;;;;;;;;;;5042410;28;20445;-74
2023/01/27 00:30:18;;;;;;;3.33;1.87;;;;;;;;;;5045534;28;20947;-74
2023/01/27 00:35:28;;;;;;;3.93;1.93;;;;;;;;;;5040098;28;20272;-73
2023/01/27 00:37:54;;;;;;;2.70;1.80;;;;;;;;;;5023654;28;20445;-73
2023/01/27 00:40:19;;;;;;;4.50;1.73;;;;;;;;;;5027737;28;20444;-73
2023/01/27 00:42:44;;;;;;;8.30;2.63;;;;;;;;;;5036468;28;20225;-73
2023/01/27 00:47:56;;;;;;;2.77;2.37;;;;;;;;;;5036325;28;20579;-73
2023/01/27 00:50:22;;;;;;;4.00;2.10;;;;;;;;;;5036760;28;20435;-73
2023/01/27 00:52:48;;;;;;;3.27;2.00;;;;;;;;;;5039268;28;20259;-73
2023/01/27 00:55:17;;;;;;;3.50;1.90;;;;;;;;;;5040345;28;20850;-73
2023/01/27 00:57:42;;;;;;;3.63;1.73;;;;;;;;;;5025341;28;20632;-73
2023/01/27 01:00:08;;;;;;;2.33;1.60;;;;;;;;;;5020146;28;20446;-73
2023/01/27 01:02:34;;;;;;;3.23;1.83;;;;;;;;;;5019880;28;20176;-73
2023/01/27 01:04:59;;;;;;;2.70;1.40;;;;;;;;;;5041422;28;20465;-73
2023/01/27 01:07:24;;;;;;;3.53;1.80;;;;;;;;;;5027013;28;20661;-73
2023/01/27 01:09:50;;;;;;;2.40;1.60;;;;;;;;;;5026272;28;20272;-73
2023/01/27 01:12:15;;;;;;;4.27;1.23;;;;;;;;;;5018668;28;20310;-73
2023/01/27 01:14:40;;;;;;;1.70;1.20;;;;;;;;;;5039624;28;20187;-73
2023/01/27 01:17:06;;;;;;;2.20;1.43;;;;;;;;;;5025458;28;20215;-73
2023/01/27 01:19:31;;;;;;;1.50;1.20;;;;;;;;;;5033144;28;20644;-73
2023/01/27 01:21:56;;;;;;;1.87;1.00;;;;;;;;;;5025251;28;20273;-73
2023/01/27 01:24:22;;;;;;;2.37;1.20;;;;;;;;;;5033717;28;20644;-73
2023/01/27 01:26:47;;;;;;;3.83;1.20;;;;;;;;;;5030082;28;20197;-73
2023/01/27 01:29:13;;;;;;;1.97;1.10;;;;;;;;;;5037359;28;20179;-73
2023/01/27 01:31:38;;;;;;;2.50;0.80;;;;;;;;;;5039833;28;20169;-73
2023/01/27 01:34:03;;;;;;;1.97;0.97;;;;;;;;;;5035448;28;20241;-73
2023/01/27 01:36:28;;;;;;;2.67;1.00;;;;;;;;;;5039233;28;20235;-73
2023/01/27 01:38:55;;;;;;;1.77;0.83;;;;;;;;;;5034101;28;20180;-73
2023/01/27 01:41:21;;;;;;;2.37;1.00;;;;;;;;;;5021887;28;20191;-74
2023/01/27 01:43:46;;;;;;;2.27;0.80;;;;;;;;;;5022858;28;20805;-73
2023/01/27 01:46:12;;;;;;;1.57;1.07;;;;;;;;;;5020315;28;20671;-73
2023/01/27 01:48:45;;;;;;;1.97;0.87;;;;;;;;;;5031425;28;20739;-73
2023/01/27 01:51:31;;;;;;;2.20;0.90;;;;;;;;;;5021027;28;20310;-73
2023/01/27 01:54:11;;;;;;;2.93;1.10;;;;;;;;;;5027181;28;20440;-74
2023/01/27 01:56:39;;;;;;;2.27;1.00;;;;;;;;;;5035525;28;20473;-74
2023/01/27 01:59:06;;;;;;;1.93;1.20;;;;;;;;;;5022689;28;20426;-73
2023/01/27 02:01:31;;;;;;;1.10;0.90;;;;;;;;;;5032513;28;20523;-73
2023/01/27 02:03:59;;;;;;;1.73;1.03;;;;;;;;;;5033215;28;20874;-73
2023/01/27 02:06:24;;;;;;;3.23;0.90;;;;;;;;;;5032131;28;20179;-73
2023/01/27 02:08:50;;;;;;;1.47;1.20;;;;;;;;;;5037047;28;20731;-73
2023/01/27 02:11:16;;;;;;;2.10;1.13;;;;;;;;;;5018495;28;20656;-73
2023/01/27 02:13:41;;;;;;;1.93;1.20;;;;;;;;;;5033692;28;20423;-73
2023/01/27 02:16:07;;;;;;;2.90;1.07;;;;;;;;;;5037665;28;20783;-73
2023/01/27 02:18:32;;;;;;;4.93;1.03;;;;;;;;;;5038088;28;20450;-73
2023/01/27 02:20:58;;;;;;;0.97;0.80;;;;;;;;;;5036749;28;20555;-73
2023/01/27 02:24:05;;;;;;;2.27;1.10;;;;;;;;;;5036418;28;20231;-73
2023/01/27 02:26:35;;;;;;;1.67;0.90;;;;;;;;;;4925945;28;20237;-73
2023/01/27 02:29:10;;;;;;;2.20;1.30;;;;;;;;;;4942394;28;20935;-73
2023/01/27 02:31:36;;;;;;;6.83;1.37;;;;;;;;;;4976924;28;20434;-73
2023/01/27 02:34:15;;;;;;;2.10;1.50;;;;;;;;;;5020292;28;20439;-73
2023/01/27 02:36:43;;;;;;;3.67;1.23;;;;;;;;;;5036055;28;20851;-73
2023/01/27 02:39:12;;;;;;;2.23;1.13;;;;;;;;;;5036303;28;20513;-73
2023/01/27 02:41:37;;;;;;;3.00;0.97;;;;;;;;;;5019827;28;20439;-73
2023/01/27 02:44:03;;;;;;;1.77;1.33;;;;;;;;;;5035546;28;20469;-73
2023/01/27 02:46:28;;;;;;;2.63;1.10;;;;;;;;;;5037837;28;20208;-73
2023/01/27 02:48:54;;;;;;;2.70;1.17;;;;;;;;;;5030661;28;20259;-73
2023/01/27 02:51:19;;;;;;;1.50;0.90;;;;;;;;;;5033350;28;20610;-73
2023/01/27 02:53:44;;;;;;;3.30;1.00;;;;;;;;;;5017221;28;21058;-73
2023/01/27 02:56:10;;;;;;;2.90;1.30;;;;;;;;;;5034316;28;20629;-73
2023/01/27 02:58:35;;;;;;;3.10;1.37;;;;;;;;;;5033346;28;20703;-73
2023/01/27 03:01:00;;;;;;;1.50;1.07;;;;;;;;;;5017789;28;20238;-73
2023/01/27 03:03:26;;;;;;;4.83;1.30;;;;;;;;;;5033896;28;20206;-74
2023/01/27 03:05:51;;;;;;;1.70;1.10;;;;;;;;;;5031135;28;20675;-73
2023/01/27 03:08:17;;;;;;;1.67;1.30;;;;;;;;;;5032074;28;20212;-73
2023/01/27 03:10:42;;;;;;;2.60;1.23;;;;;;;;;;5020681;28;20550;-73
2023/01/27 03:13:08;;;;;;;5.30;1.40;;;;;;;;;;5035415;28;20564;-73
2023/01/27 03:18:17;;;;;;;3.47;1.40;;;;;;;;;;5036734;28;20808;-73
2023/01/27 03:20:43;;;;;;;3.57;1.20;;;;;;;;;;5022888;28;20426;-73
2023/01/27 03:23:09;;;;;;;6.93;1.43;;;;;;;;;;5032393;28;20192;-73
2023/01/27 03:25:35;;;;;;;1.47;0.90;;;;;;;;;;5019250;28;20426;-73
2023/01/27 03:28:00;;;;;;;2.50;1.23;;;;;;;;;;5038104;28;20446;-73
2023/01/27 03:30:28;;;;;;;2.67;1.10;;;;;;;;;;5039585;28;20258;-73
2023/01/27 03:32:54;;;;;;;3.50;1.50;;;;;;;;;;5042164;28;20186;-73
2023/01/27 03:35:21;;;;;;;5.50;1.40;;;;;;;;;;5041224;28;20415;-74
2023/01/27 03:46:15;;;;;;;5.43;1.23;;;;;;;;;;5041125;28;20433;-73
2023/01/27 03:48:41;;;;;;;3.73;1.30;;;;;;;;;;5021700;28;20450;-73
2023/01/27 03:51:07;;;;;;;3.87;1.40;;;;;;;;;;5025886;28;20857;-73
2023/01/27 03:53:33;;;;;;;2.50;1.30;;;;;;;;;;5023243;28;20183;-73
2023/01/27 03:55:58;;;;;;;2.40;1.10;;;;;;;;;;5029146;28;20446;-73
2023/01/27 03:58:25;;;;;;;2.00;1.13;;;;;;;;;;5036981;28;20468;-73
2023/01/27 04:00:51;;;;;;;2.50;1.17;;;;;;;;;;5035848;28;20191;-73
2023/01/27 04:08:48;;;;;;;1.57;1.37;;;;;;;;;;5030235;28;20422;-73
2023/01/27 04:14:01;;;;;;;2.27;1.30;;;;;;;;;;5032281;28;20191;-73
2023/01/27 04:16:30;;;;;;;1.23;1.10;;;;;;;;;;5018527;28;20430;-73
2023/01/27 04:18:56;;;;;;;2.80;1.33;;;;;;;;;;5033313;28;20443;-73
2023/01/27 04:21:22;;;;;;;2.70;1.43;;;;;;;;;;5021534;28;20949;-73
2023/01/27 04:23:47;;;;;;;2.70;1.40;;;;;;;;;;5036142;28;20211;-73
2023/01/27 04:26:12;;;;;;;1.63;1.33;;;;;;;;;;5037984;28;20695;-73
2023/01/27 04:28:37;;;;;;;1.57;1.00;;;;;;;;;;5037740;28;20207;-73
2023/01/27 04:31:03;;;;;;;2.43;1.20;;;;;;;;;;5038732;28;20175;-73
2023/01/27 04:33:28;;;;;;;1.83;1.17;;;;;;;;;;5040822;28;20181;-73
2023/01/27 04:35:54;;;;;;;1.77;1.10;;;;;;;;;;5024666;28;20290;-73
2023/01/27 04:38:19;;;;;;;1.90;1.30;;;;;;;;;;5026368;28;20203;-73
2023/01/27 04:40:44;;;;;;;1.67;0.90;;;;;;;;;;5045184;28;20180;-73
2023/01/27 04:43:10;;;;;;;1.43;1.00;;;;;;;;;;5027996;28;20633;-73
2023/01/27 04:45:35;;;;;;;1.70;1.10;;;;;;;;;;5027449;28;20184;-73
2023/01/27 04:48:03;;;;;;;1.57;1.10;;;;;;;;;;5039926;28;20287;-73
2023/01/27 04:50:28;;;;;;;1.17;0.90;;;;;;;;;;5047185;28;20283;-73
2023/01/27 04:52:53;;;;;;;2.90;1.30;;;;;;;;;;5031777;28;20445;-73
2023/01/27 04:55:18;;;;;;;1.00;0.80;;;;;;;;;;5045873;28;20187;-73
2023/01/27 04:57:44;;;;;;;1.53;0.90;;;;;;;;;;5044129;28;20740;-73
2023/01/27 05:00:10;;;;;;;1.33;0.90;;;;;;;;;;5044778;28;20177;-73
2023/01/27 05:02:35;;;;;;;2.13;1.03;;;;;;;;;;5045559;28;20211;-73
2023/01/27 05:05:03;;;;;;;2.57;1.00;;;;;;;;;;5044113;28;20891;-73
2023/01/27 05:07:29;;;;;;;2.70;1.07;;;;;;;;;;5025884;28;20279;-73
2023/01/27 05:09:54;;;;;;;1.37;0.73;;;;;;;;;;5045471;28;21193;-73
2023/01/27 05:12:19;;;;;;;1.47;1.10;;;;;;;;;;5045312;28;20179;-73
2023/01/27 05:14:44;;;;;;;1.63;0.80;;;;;;;;;;5044957;28;20172;-73
2023/01/27 05:17:10;;;;;;;2.03;1.20;;;;;;;;;;5044811;28;20707;-73
2023/01/27 05:19:35;;;;;;;1.20;1.00;;;;;;;;;;5045063;28;20225;-73
2023/01/27 05:22:00;;;;;;;1.83;0.90;;;;;;;;;;5029582;28;20679;-73
2023/01/27 05:24:25;;;;;;;1.40;0.83;;;;;;;;;;5044067;28;20197;-73
2023/01/27 05:26:52;;;;;;;1.00;0.80;;;;;;;;;;5042781;28;20200;-73
2023/01/27 05:29:17;;;;;;;4.80;1.43;;;;;;;;;;5024945;28;20176;-73
2023/01/27 05:31:42;;;;;;;3.23;1.00;;;;;;;;;;5020651;28;20440;-73
2023/01/27 05:34:08;;;;;;;1.50;0.80;;;;;;;;;;5036383;28;20187;-73
2023/01/27 05:36:33;;;;;;;1.33;0.90;;;;;;;;;;5035097;28;20669;-73
2023/01/27 05:38:58;;;;;;;1.73;0.90;;;;;;;;;;5021640;28;20936;-74
2023/01/27 05:41:24;;;;;;;4.87;0.90;;;;;;;;;;5021150;28;20184;-74
2023/01/27 05:43:53;;;;;;;3.03;1.20;;;;;;;;;;5016679;28;20192;-74
2023/01/27 05:46:20;;;;;;;4.27;0.90;;;;;;;;;;5027118;28;20251;-74
2023/01/27 05:48:48;;;;;;;3.10;1.00;;;;;;;;;;5037184;28;20434;-73
2023/01/27 05:51:14;;;;;;;2.40;0.90;;;;;;;;;;5020323;28;20485;-74
2023/01/27 05:53:40;;;;;;;1.47;1.03;;;;;;;;;;5029372;28;20418;-74
2023/01/27 05:56:09;;;;;;;3.47;1.00;;;;;;;;;;5064665;22;20530;-73
2023/01/27 05:58:34;;;;;;;2.07;0.93;;;;;;;;;;5048092;28;20274;-73
2023/01/27 06:01:10;;;;;;;1.90;0.90;;;;;;;;;;5057141;28;20464;-73
2023/01/27 06:03:36;;;;;;;2.90;1.10;;;;;;;;;;5070835;28;20194;-73
2023/01/27 06:06:02;;;;;;;3.10;1.10;;;;;;;;;;5046221;28;20506;-73
2023/01/27 06:08:28;;;;;;;1.90;1.00;;;;;;;;;;5056322;28;20180;-73
2023/01/27 06:10:53;;;;;;;2.77;1.13;;;;;;;;;;5060478;28;20426;-73
2023/01/27 06:13:22;;;;;;;4.30;1.13;;;;;;;;;;5056721;28;20589;-73
2023/01/27 06:15:48;;;;;;;4.50;1.20;;;;;;;;;;5056072;28;20226;-72
2023/01/27 06:18:14;;;;;;;4.77;1.30;;;;;;;;;;5055362;28;20464;-73
2023/01/27 06:20:40;;;;;;;4.03;1.57;;;;;;;;;;5058874;28;20229;-72
2023/01/27 06:23:09;;;;;;;10.20;1.10;;;;;;;;;;5059157;28;20433;-72
2023/01/27 06:25:36;;;;;;;6.10;1.30;;;;;;;;;;5059077;28;20696;-72
2023/01/27 06:28:01;;;;;;;4.60;1.53;;;;;;;;;;5055639;28;20486;-73
2023/01/27 06:30:27;;;;;;;4.53;1.40;;;;;;;;;;5056749;28;20445;-73
2023/01/27 06:32:52;;;;;;;3.07;1.27;;;;;;;;;;5040940;28;20187;-72
2023/01/27 06:35:18;;;;;;;2.20;1.53;;;;;;;;;;5056400;28;20233;-72
2023/01/27 06:37:43;;;;;;;6.13;1.30;;;;;;;;;;5055792;28;21997;-73
2023/01/27 06:40:10;;;;;;;2.00;0.80;;;;;;;;;;5058266;28;20192;-72
2023/01/27 06:42:35;;;;;;;1.73;1.30;;;;;;;;;;5055692;28;20176;-72
2023/01/27 06:45:00;;;;;;;3.00;1.20;;;;;;;;;;5043231;28;20472;-72
2023/01/27 06:47:26;;;;;;;3.90;1.37;;;;;;;;;;5057083;28;20176;-72
2023/01/27 06:49:52;;;;;;;2.70;1.40;;;;;;;;;;5059302;28;20210;-72
2023/01/27 06:52:20;;;;;;;5.77;1.60;;;;;;;;;;5057505;28;20689;-73
2023/01/27 06:54:45;;;;;;;2.90;1.10;;;;;;;;;;5056057;28;20290;-73
2023/01/27 06:57:11;;;;;;;3.83;1.37;;;;;;;;;;5057185;28;20524;-72
2023/01/27 06:59:37;;;;;;;4.37;1.30;;;;;;;;;;5057673;28;20206;-73
2023/01/27 07:02:02;;;;;;;2.60;1.20;;;;;;;;;;5042568;28;20199;-73
2023/01/27 07:04:28;;;;;;;3.53;1.43;;;;;;;;;;5056909;28;20452;-73
2023/01/27 07:06:54;;;;;;;1.80;1.03;;;;;;;;;;5035330;28;20669;-73
2023/01/27 07:09:19;;;;;;;3.17;1.20;;;;;;;;;;5056057;28;20465;-73
2023/01/27 07:11:48;;;;;;;4.87;1.43;;;;;;;;;;5058351;28;20278;-73
2023/01/27 07:14:13;;;;;;;2.87;1.50;;;;;;;;;;5056109;28;20660;-73
2023/01/27 07:16:38;;;;;;;3.97;1.43;;;;;;;;;;5055493;28;20440;-73
2023/01/27 07:19:04;;;;;;;4.03;1.40;;;;;;;;;;5040573;28;20660;-73
2023/01/27 07:21:30;;;;;;;2.87;1.50;;;;;;;;;;5041855;28;20280;-73
2023/01/27 07:23:55;;;;;;;2.47;1.10;;;;;;;;;;5054247;28;20248;-73
2023/01/27 07:26:21;;;;;;;4.10;1.40;;;;;;;;;;5056310;28;20281;-73
2023/01/27 07:28:49;;;;;;;4.90;1.90;;;;;;;;;;5056463;28;20171;-73
2023/01/27 07:31:14;;;;;;;4.47;1.83;;;;;;;;;;5035749;28;20184;-74
2023/01/27 07:33:40;;;;;;;3.40;1.47;;;;;;;;;;5056079;28;20984;-73
2023/01/27 07:36:05;;;;;;;3.17;1.20;;;;;;;;;;5038642;28;20676;-74
2023/01/27 07:38:31;;;;;;;4.90;1.27;;;;;;;;;;5055774;28;20250;-74
2023/01/27 07:40:57;;;;;;;4.10;1.40;;;;;;;;;;5040214;28;20265;-73
2023/01/27 07:43:23;;;;;;;3.27;1.40;;;;;;;;;;5041230;28;20560;-72
2023/01/27 07:45:51;;;;;;;2.43;1.23;;;;;;;;;;5056682;28;20542;-73
2023/01/27 07:48:17;;;;;;;6.80;1.80;;;;;;;;;;5055834;28;21088;-73
2023/01/27 07:50:42;;;;;;;2.50;1.20;;;;;;;;;;5058287;28;20466;-74
2023/01/27 07:53:09;;;;;;;3.70;1.00;;;;;;;;;;5052391;28;20183;-73
2023/01/27 07:55:35;;;;;;;3.50;1.23;;;;;;;;;;5058082;28;20215;-73
2023/01/27 07:58:00;;;;;;;3.27;1.10;;;;;;;;;;5042697;28;20487;-73
2023/01/27 08:00:27;;;;;;;2.80;1.30;;;;;;;;;;5054809;28;21009;-72
2023/01/27 08:02:56;;;;;;;2.30;1.00;;;;;;;;;;5036622;28;20179;-72
2023/01/27 08:05:21;;;;;;;3.10;1.20;;;;;;;;;;5057374;28;20559;-72
2023/01/27 08:07:47;;;;;;;3.00;1.20;;;;;;;;;;5055117;28;20516;-72
2023/01/27 08:10:12;;;;;;;3.27;1.40;;;;;;;;;;5056002;28;20784;-72
2023/01/27 08:12:38;;;;;;;3.57;1.40;;;;;;;;;;5057918;28;20206;-72
2023/01/27 08:15:03;;;;;;;2.57;1.30;;;;;;;;;;5059746;28;20253;-73
2023/01/27 08:17:29;;;;;;;4.97;1.70;;;;;;;;;;5057514;28;20643;-72
2023/01/27 08:19:54;;;;;;;4.30;1.60;;;;;;;;;;5060830;28;20428;-72
2023/01/27 08:22:22;;;;;;;3.67;1.50;;;;;;;;;;5061420;28;20724;-72
2023/01/27 08:24:48;;;;;;;5.40;1.43;;;;;;;;;;5045049;28;20215;-73
2023/01/27 08:27:16;;;;;;;2.77;1.27;;;;;;;;;;5058744;28;20936;-72
2023/01/27 08:29:42;;;;;;;2.80;1.37;;;;;;;;;;5035426;28;20461;-72
2023/01/27 08:32:07;;;;;;;2.90;1.30;;;;;;;;;;5058630;28;20499;-73
2023/01/27 08:34:33;;;;;;;3.57;1.33;;;;;;;;;;5060141;28;20204;-72
2023/01/27 08:36:58;;;;;;;2.80;1.50;;;;;;;;;;5042608;28;20739;-72
2023/01/27 08:39:24;;;;;;;3.07;1.27;;;;;;;;;;5060494;28;20230;-72
2023/01/27 08:41:49;;;;;;;4.13;1.57;;;;;;;;;;5058990;28;20179;-72
2023/01/27 08:44:24;;;;;;;2.00;1.10;;;;;;;;;;5059487;28;20302;-72
2023/01/27 08:46:49;;;;;;;4.00;1.50;;;;;;;;;;5043797;28;20181;-72
2023/01/27 08:49:14;;;;;;;2.03;1.20;;;;;;;;;;5059134;28;20505;-72
2023/01/27 08:51:41;;;;;;;4.30;1.50;;;;;;;;;;5060728;28;20589;-72
2023/01/27 08:54:06;;;;;;;3.53;1.27;;;;;;;;;;5058941;28;20655;-72
2023/01/27 08:56:31;;;;;;;2.90;1.53;;;;;;;;;;5055743;28;21004;-72
2023/01/27 08:58:57;;;;;;;3.90;1.50;;;;;;;;;;5059879;28;20171;-71
2023/01/27 09:01:23;;;;;;;3.03;1.43;;;;;;;;;;5046887;28;20596;-72
2023/01/27 09:03:51;;;;;;;2.33;1.40;;;;;;;;;;5059674;28;20200;-72
2023/01/27 09:06:17;;;;;;;3.77;1.40;;;;;;;;;;5045623;28;20203;-72
2023/01/27 09:08:43;;;;;;;2.20;1.40;;;;;;;;;;5043750;28;20434;-72
2023/01/27 09:11:12;;;;;;;1.40;1.20;;;;;;;;;;5060218;28;20507;-72
2023/01/27 09:13:38;;;;;;;2.40;1.30;;;;;;;;;;5058678;28;20175;-72
2023/01/27 09:16:03;;;;;;;2.30;1.60;;;;;;;;;;5058128;28;20500;-72
2023/01/27 09:18:29;;;;;;;4.77;1.70;;;;;;;;;;5055337;28;20228;-72
2023/01/27 09:20:54;;;;;;;3.90;1.60;;;;;;;;;;5031245;28;20183;-72
2023/01/27 09:23:19;;;;;;;2.87;1.40;;;;;;;;;;5052505;28;20261;-72
2023/01/27 09:25:45;;;;;;;1.63;1.43;;;;;;;;;;5043735;28;20211;-72
2023/01/27 09:28:15;;;;;;;2.37;1.60;;;;;;;;;;5059263;28;20176;-72
2023/01/27 09:30:42;;;;;;;3.63;1.53;;;;;;;;;;5042076;28;20175;-72
2023/01/27 09:33:07;;;;;;;4.03;1.90;;;;;;;;;;5059402;28;20435;-72
2023/01/27 09:35:37;;;;;;;1.90;1.70;;;;;;;;;;5044469;28;20465;-72
2023/01/27 09:38:03;;;;;;;2.87;1.70;;;;;;;;;;5055931;28;20219;-72
2023/01/27 09:40:31;;;;;;;3.00;2.10;;;;;;;;;;5044787;28;20439;-72
2023/01/27 09:43:19;;;;;;;4.50;1.80;;;;;;;;;;5046607;28;20934;-72
2023/01/27 09:46:04;;;;;;;1.73;1.50;;;;;;;;;;5025228;28;20538;-72
2023/01/27 09:48:40;;;;;;;1.60;1.50;;;;;;;;;;5058787;28;20433;-72
2023/01/27 09:51:23;;;;;;;2.40;1.73;;;;;;;;;;5056247;28;20437;-72
2023/01/27 09:53:55;;;;;;;3.23;1.50;;;;;;;;;;5044321;28;20459;-72
2023/01/27 09:56:20;;;;;;;1.30;1.20;;;;;;;;;;5057974;28;20466;-72
2023/01/27 09:58:55;;;;;;;1.47;1.30;;;;;;;;;;5057418;28;20437;-72
2023/01/27 10:01:20;;;;;;;1.30;1.20;;;;;;;;;;5044669;28;20171;-72
2023/01/27 10:03:46;;;;;;;1.20;1.10;;;;;;;;;;5056258;28;20522;-72
2023/01/27 10:06:18;;;;;;;1.30;1.20;;;;;;;;;;5054940;28;20202;-72
2023/01/27 10:09:03;;;;;;;1.50;1.30;;;;;;;;;;5040363;28;20172;-72
2023/01/27 10:11:28;;;;;;;1.30;1.20;;;;;;;;;;5060616;28;20425;-72
2023/01/27 10:14:05;;;;;;;1.90;1.17;;;;;;;;;;5060249;28;20431;-73
2023/01/27 10:16:40;;;;;;;2.83;1.43;;;;;;;;;;5060489;28;20203;-72
2023/01/27 10:19:05;;;;;;;3.30;1.53;;;;;;;;;;5037762;28;20428;-71
2023/01/27 10:21:44;;;;;;;1.70;1.60;;;;;;;;;;5033747;28;20434;-73
2023/01/27 10:24:10;;;;;;;3.43;1.67;;;;;;;;;;5058530;28;20468;-73
2023/01/27 10:26:40;;;;;;;2.53;1.80;;;;;;;;;;5060778;28;20480;-72
2023/01/27 10:29:12;;;;;;;1.50;1.30;;;;;;;;;;5045020;28;20179;-73
2023/01/27 10:31:43;;;;;;;3.57;1.70;;;;;;;;;;5060360;28;20437;-73
2023/01/27 10:34:25;;;;;;;1.80;1.70;;;;;;;;;;5061505;28;20414;-72
2023/01/27 10:36:56;;;;;;;2.27;1.80;;;;;;;;;;5056075;28;20441;-73
2023/01/27 10:39:27;;;;;;;1.70;1.60;;;;;;;;;;5045624;28;20426;-72
2023/01/27 10:42:22;;;;;;;1.80;1.50;;;;;;;;;;5058659;28;20426;-72
2023/01/27 10:44:50;;;;;;;2.47;1.90;;;;;;;;;;5047904;28;20474;-72
2023/01/27 10:47:41;;;;;;;2.07;1.77;;;;;;;;;;5059714;28;20428;-73
2023/01/27 10:50:14;;;;;;;1.50;1.40;;;;;;;;;;5024487;28;20496;-72
2023/01/27 10:52:49;;;;;;;1.50;1.40;;;;;;;;;;5060614;28;20409;-72
2023/01/27 10:55:24;;;;;;;1.63;1.53;;;;;;;;;;5044296;28;20461;-72
2023/01/27 10:57:49;;;;;;;3.93;1.70;;;;;;;;;;5045635;28;20440;-73
2023/01/27 11:00:21;;;;;;;1.63;1.50;;;;;;;;;;5038662;28;20430;-72
2023/01/27 11:02:52;;;;;;;1.97;1.60;;;;;;;;;;5054587;28;20190;-72
2023/01/27 11:05:20;;;;;;;1.67;1.47;;;;;;;;;;5054241;28;20493;-72
2023/01/27 11:07:47;;;;;;;1.50;1.40;;;;;;;;;;5042173;28;20440;-72
2023/01/27 11:10:15;;;;;;;1.87;1.60;;;;;;;;;;5058108;28;20440;-72
2023/01/27 11:12:43;;;;;;;1.90;1.50;;;;;;;;;;5034623;28;20431;-72
2023/01/27 11:15:29;;;;;;;1.93;1.60;;;;;;;;;;5054128;28;20460;-72
2023/01/27 11:17:57;;;;;;;2.87;1.40;;;;;;;;;;5052757;28;20798;-72
2023/01/27 11:20:27;;;;;;;2.40;1.50;;;;;;;;;;5055878;28;20451;-72
2023/01/27 11:23:03;;;;;;;2.57;1.67;;;;;;;;;;5043054;28;21003;-72
2023/01/27 11:25:53;;;;;;;3.37;1.80;;;;;;;;;;5040820;28;20556;-72
2023/01/27 11:28:24;;;;;;;2.10;1.47;;;;;;;;;;5037074;28;20434;-72
2023/01/27 11:30:56;;;;;;;2.83;1.67;;;;;;;;;;5056048;28;20843;-72
2023/01/27 11:33:43;;;;;;;2.30;1.87;;;;;;;;;;5047419;28;20496;-72
2023/01/27 11:36:08;;;;;;;2.17;1.20;;;;;;;;;;5008862;28;20464;-72
2023/01/27 11:38:34;;;;;;;3.67;2.47;;;;;;;;;;5052624;28;21019;-73
2023/01/27 11:40:59;;;;;;;26.10;18.33;;;;;;;;;;5043250;28;21169;-72
2023/01/27 11:43:27;;;;;;;32.83;23.53;;;;;;;;;;5052518;28;20622;-72
2023/01/27 11:46:05;;;;;;;11.30;9.13;;;;;;;;;;5055732;28;20211;-72
2023/01/27 11:48:50;;;;;;;3.83;2.77;;;;;;;;;;5060561;28;20918;-72
2023/01/27 11:51:20;;;;;;;1.57;1.13;;;;;;;;;;5060175;28;20456;-72
2023/01/27 11:53:48;;;;;;;1.07;0.80;;;;;;;;;;5045615;28;20544;-73
2023/01/27 11:56:16;;;;;;;1.00;0.90;;;;;;;;;;5058979;28;20465;-72
2023/01/27 11:58:59;;;;;;;1.10;1.00;;;;;;;;;;5060355;28;20445;-72
2023/01/27 12:01:28;;;;;;;1.37;1.10;;;;;;;;;;5046482;28;20437;-72
2023/01/27 12:03:57;;;;;;;1.10;0.90;;;;;;;;;;5045580;28;20556;-73
2023/01/27 12:06:32;;;;;;;1.43;0.90;;;;;;;;;;5037965;28;20464;-72
2023/01/27 12:08:57;;;;;;;1.90;1.00;;;;;;;;;;5047137;28;20437;-72
2023/01/27 12:11:23;;;;;;;1.50;1.00;;;;;;;;;;5045825;28;20426;-72
2023/01/27 12:13:50;;;;;;;1.00;0.80;;;;;;;;;;5046208;28;20207;-72
2023/01/27 12:16:15;;;;;;;0.97;0.90;;;;;;;;;;5047412;28;20464;-72
2023/01/27 12:18:53;;;;;;;0.70;0.70;;;;;;;;;;5041839;28;20441;-72
2023/01/27 12:21:32;;;;;;;0.90;0.90;;;;;;;;;;5042265;28;20194;-71
2023/01/27 12:23:58;;;;;;;0.90;0.70;;;;;;;;;;5038599;28;20518;-72
2023/01/27 12:26:35;;;;;;;0.80;0.80;;;;;;;;;;5060233;28;20462;-72
2023/01/27 12:29:04;;;;;;;1.43;0.80;;;;;;;;;;5043813;28;22765;-72
2023/01/27 12:31:31;;;;;;;1.80;1.10;;;;;;;;;;5056004;28;20471;-72
2023/01/27 12:34:23;;;;;;;4.10;2.10;;;;;;;;;;5059490;28;21012;-73
2023/01/27 12:36:49;;;;;;;16.40;9.97;;;;;;;;;;5041201;28;20433;-73
2023/01/27 12:39:27;;;;;;;19.37;11.33;;;;;;;;;;5044573;28;20471;-72
2023/01/27 12:41:53;;;;;;;13.50;7.90;;;;;;;;;;5043698;28;20179;-73
2023/01/27 12:44:21;;;;;;;15.17;10.13;;;;;;;;;;5058402;28;20475;-73
2023/01/27 12:47:02;;;;;;;5.93;4.83;;;;;;;;;;5043562;28;20821;-73
2023/01/27 12:49:36;;;;;;;4.00;2.90;;;;;;;;;;5059279;28;20529;-72
2023/01/27 12:52:03;;;;;;;1.50;1.20;;;;;;;;;;5042870;28;20842;-74
2023/01/27 12:54:33;;;;;;;1.00;0.90;;;;;;;;;;5035587;28;20468;-72
2023/01/27 12:57:03;;;;;;;1.20;0.83;;;;;;;;;;5042159;28;20434;-72
2023/01/27 12:59:29;;;;;;;1.13;0.80;;;;;;;;;;5060434;28;20472;-72
2023/01/27 13:02:02;;;;;;;1.93;0.90;;;;;;;;;;5062969;28;20453;-73
2023/01/27 13:04:27;;;;;;;0.80;0.80;;;;;;;;;;5059911;28;20231;-72
2023/01/27 13:06:54;;;;;;;0.97;0.93;;;;;;;;;;5046272;28;20570;-73
2023/01/27 13:09:55;;;;;;;1.17;0.73;;;;;;;;;;5050248;28;20187;-72
2023/01/27 13:12:39;;;;;;;2.30;1.03;;;;;;;;;;4958662;28;20445;-73
2023/01/27 13:15:14;;;;;;;1.03;0.93;;;;;;;;;;5037387;28;20461;-72
2023/01/27 13:17:55;;;;;;;1.43;0.70;;;;;;;;;;5057800;28;20468;-72
2023/01/27 13:20:27;;;;;;;0.70;0.67;;;;;;;;;;5058954;28;20433;-72
2023/01/27 13:22:58;;;;;;;0.60;0.60;;;;;;;;;;5058504;28;20425;-72
2023/01/27 13:25:29;;;;;;;0.70;0.60;;;;;;;;;;5057719;28;20470;-73
2023/01/27 13:27:57;;;;;;;1.30;0.60;;;;;;;;;;5056886;28;20474;-73
2023/01/27 13:30:27;;;;;;;1.03;0.73;;;;;;;;;;5038308;28;20494;-73
2023/01/27 13:32:54;;;;;;;1.23;0.93;;;;;;;;;;5044307;28;20430;-73
2023/01/27 13:35:20;;;;;;;1.50;1.10;;;;;;;;;;5055952;28;20484;-73
2023/01/27 13:37:50;;;;;;;0.93;0.80;;;;;;;;;;5058175;28;21118;-72
2023/01/27 13:40:24;;;;;;;1.73;1.20;;;;;;;;;;5057718;28;20184;-72
2023/01/27 13:43:04;;;;;;;1.60;1.10;;;;;;;;;;5044640;28;20463;-72
2023/01/27 13:45:44;;;;;;;1.50;0.97;;;;;;;;;;5058723;28;20469;-72
2023/01/27 13:48:39;;;;;;;0.90;0.80;;;;;;;;;;5055563;28;20456;-72
2023/01/27 13:51:12;;;;;;;0.70;0.60;;;;;;;;;;5021908;28;20428;-72
2023/01/27 13:53:38;;;;;;;1.00;0.80;;;;;;;;;;5056088;28;20434;-72
2023/01/27 13:56:19;;;;;;;1.10;0.70;;;;;;;;;;5057199;28;20468;-72
2023/01/27 13:58:44;;;;;;;0.70;0.60;;;;;;;;;;5054573;28;20194;-73
2023/01/27 14:01:35;;;;;;;0.60;0.60;;;;;;;;;;5054890;28;20963;-72
2023/01/27 14:04:01;;;;;;;0.60;0.60;;;;;;;;;;5029294;28;20218;-73
2023/01/27 14:06:26;;;;;;;0.70;0.70;;;;;;;;;;5054495;28;20509;-73
2023/01/27 14:09:00;;;;;;;2.00;0.60;;;;;;;;;;5053447;28;20219;-72
2023/01/27 14:11:45;;;;;;;1.67;0.60;;;;;;;;;;5057449;28;20924;-72
2023/01/27 14:14:28;;;;;;;0.70;0.70;;;;;;;;;;5056912;28;20434;-73
2023/01/27 14:17:09;;;;;;;0.80;0.70;;;;;;;;;;5057586;28;20430;-73
2023/01/27 14:19:54;;;;;;;1.27;1.00;;;;;;;;;;5055044;28;20469;-73
2023/01/27 14:22:29;;;;;;;1.00;0.90;;;;;;;;;;5057826;28;20538;-72
2023/01/27 14:25:02;;;;;;;0.90;0.90;;;;;;;;;;5041252;28;20904;-73
2023/01/27 14:27:40;;;;;;;1.13;1.00;;;;;;;;;;5054042;28;20460;-72
2023/01/27 14:30:09;;;;;;;1.27;1.00;;;;;;;;;;5041872;28;20468;-72
2023/01/27 14:32:38;;;;;;;0.80;0.80;;;;;;;;;;5039541;28;21344;-72
2023/01/27 14:35:20;;;;;;;1.17;1.07;;;;;;;;;;5058408;28;20449;-72
2023/01/27 14:37:47;;;;;;;0.83;0.83;;;;;;;;;;5054230;28;20433;-72
2023/01/27 14:40:21;;;;;;;1.00;1.00;;;;;;;;;;5042932;28;20456;-72
2023/01/27 14:42:47;;;;;;;1.23;1.13;;;;;;;;;;5055653;28;20479;-72
2023/01/27 14:45:17;;;;;;;1.00;1.00;;;;;;;;;;5053718;28;21078;-71
2023/01/27 14:47:42;;;;;;;1.13;1.03;;;;;;;;;;5057033;28;20175;-72
2023/01/27 14:50:19;;;;;;;1.20;1.00;;;;;;;;;;5058028;28;20780;-72
2023/01/27 14:52:48;;;;;;;1.20;1.00;;;;;;;;;;5058231;28;20254;-72
2023/01/27 14:55:25;;;;;;;1.20;1.00;;;;;;;;;;5056209;28;20575;-73
2023/01/27 14:57:55;;;;;;;1.50;1.33;;;;;;;;;;5043375;28;20452;-72
2023/01/27 15:00:30;;;;;;;1.50;1.33;;;;;;;;;;5038487;28;20441;-73
2023/01/27 15:03:19;;;;;;;3.23;1.63;;;;;;;;;;5043963;28;20469;-72
2023/01/27 15:05:53;;;;;;;1.30;1.20;;;;;;;;;;5058046;28;20992;-73
2023/01/27 15:08:21;;;;;;;1.50;1.40;;;;;;;;;;5054676;28;20428;-72
2023/01/27 15:11:18;;;;;;;1.87;1.37;;;;;;;;;;5041820;28;20429;-73
2023/01/27 15:13:53;;;;;;;1.50;1.40;;;;;;;;;;4994856;28;21083;-73
2023/01/27 15:16:23;;;;;;;1.77;1.67;;;;;;;;;;5038072;28;20458;-73
2023/01/27 15:19:04;;;;;;;1.43;1.27;;;;;;;;;;5053455;28;20426;-72
2023/01/27 15:21:47;;;;;;;1.73;1.40;;;;;;;;;;5056476;28;20452;-73
2023/01/27 15:24:22;;;;;;;1.80;1.60;;;;;;;;;;5057402;28;20465;-72